createdAt,value
2019-02-15T00:02:11.810Z,28.27
2019-02-15T00:04:42.086Z,27.40
2019-02-15T00:07:15.143Z,28.57
2019-02-15T00:09:45.419Z,29.07
2019-02-15T00:12:15.718Z,32.97
2019-02-15T00:14:47.729Z,35.33
2019-02-15T00:17:32.042Z,33.87
2019-02-15T00:20:03.947Z,37.70
2019-02-15T00:22:34.217Z,32.47
2019-02-15T00:25:05.437Z,38.30
2019-02-15T00:27:35.733Z,29.67
2019-02-15T00:30:09.801Z,32.33
2019-02-15T00:32:40.107Z,32.07
2019-02-15T00:35:10.449Z,32.30
2019-02-15T00:37:40.745Z,32.87
2019-02-15T00:40:11.016Z,32.10
2019-02-15T00:42:41.296Z,27.50
2019-02-15T00:45:13.236Z,31.13
2019-02-15T00:47:51.162Z,30.63
2019-02-15T00:50:26.151Z,31.73
2019-02-15T00:52:58.080Z,35.87
2019-02-15T00:55:30.019Z,34.43
2019-02-15T00:58:10.949Z,29.20
2019-02-15T01:00:42.877Z,34.63
2019-02-15T01:03:31.248Z,35.67
2019-02-15T01:06:19.597Z,30.37
2019-02-15T01:09:08.171Z,30.33
2019-02-15T01:11:40.106Z,32.47
2019-02-15T01:14:10.384Z,31.37
2019-02-15T01:16:40.674Z,31.03
2019-02-15T01:19:10.951Z,30.77
2019-02-15T01:21:41.222Z,36.50
2019-02-15T01:24:11.505Z,34.93
2019-02-15T01:26:46.197Z,34.30
2019-02-15T01:29:18.114Z,40.27
2019-02-15T01:31:50.043Z,35.47
2019-02-15T01:34:27.980Z,38.63
2019-02-15T01:36:59.912Z,35.93
2019-02-15T01:39:37.746Z,33.73
2019-02-15T01:42:12.472Z,39.83
2019-02-15T01:44:58.228Z,37.07
2019-02-15T01:47:28.521Z,37.93
2019-02-15T01:49:58.800Z,40.40
2019-02-15T01:52:29.146Z,34.00
2019-02-15T01:54:59.423Z,34.77
2019-02-15T01:57:29.801Z,38.63
2019-02-15T02:00:00.150Z,33.50
2019-02-15T02:02:30.472Z,32.37
2019-02-15T02:05:00.778Z,35.27
2019-02-15T02:07:31.051Z,36.83
2019-02-15T02:10:01.349Z,37.17
2019-02-15T02:12:32.588Z,36.87
2019-02-15T02:15:03.454Z,37.97
2019-02-15T02:17:33.744Z,38.20
2019-02-15T02:20:05.406Z,33.63
2019-02-15T02:22:35.697Z,39.87
2019-02-15T02:25:07.210Z,40.13
2019-02-15T02:27:37.525Z,41.83
2019-02-15T02:30:09.554Z,40.57
2019-02-15T02:32:39.845Z,34.00
2019-02-15T02:35:10.158Z,38.40
2019-02-15T02:37:40.673Z,41.17
2019-02-15T02:40:10.933Z,40.03
2019-02-15T02:42:41.218Z,38.80
2019-02-15T02:45:11.569Z,42.47
2019-02-15T02:47:41.830Z,40.50
2019-02-15T02:50:12.103Z,45.87
2019-02-15T02:52:43.373Z,41.87
2019-02-15T02:55:13.646Z,42.17
2019-02-15T02:57:43.998Z,41.93
2019-02-15T03:00:14.283Z,39.13
2019-02-15T03:02:44.841Z,42.03
2019-02-15T03:05:15.127Z,36.43
2019-02-15T03:07:45.458Z,40.67
2019-02-15T03:10:17.000Z,38.70
2019-02-15T03:12:47.261Z,40.07
2019-02-15T03:15:17.523Z,44.10
2019-02-15T03:17:47.810Z,41.17
2019-02-15T03:20:18.095Z,39.80
2019-02-15T03:22:48.450Z,43.77
2019-02-15T03:25:19.718Z,33.97
2019-02-15T03:27:49.998Z,44.83
2019-02-15T03:30:20.314Z,37.30
2019-02-15T03:32:50.610Z,40.97
2019-02-15T03:35:20.871Z,38.83
2019-02-15T03:37:52.833Z,39.43
2019-02-15T03:40:27.949Z,36.60
2019-02-15T03:42:58.235Z,38.97
2019-02-15T03:45:28.513Z,39.00
2019-02-15T03:47:58.814Z,39.87
2019-02-15T03:50:29.099Z,37.53
2019-02-15T03:52:59.451Z,39.37
2019-02-15T03:55:29.722Z,35.83
2019-02-15T03:58:00.078Z,37.53
2019-02-15T04:00:30.376Z,38.67
2019-02-15T04:03:00.673Z,41.17
2019-02-15T04:05:31.082Z,38.13
2019-02-15T04:08:01.410Z,35.30
2019-02-15T04:10:31.701Z,39.23
2019-02-15T04:13:02.010Z,33.80
2019-02-15T04:15:32.397Z,37.80
2019-02-15T04:18:02.644Z,36.80
2019-02-15T04:20:33.104Z,38.67
2019-02-15T04:23:04.597Z,38.53
2019-02-15T04:25:34.878Z,34.97
2019-02-15T04:28:05.168Z,44.67
2019-02-15T04:30:35.443Z,35.83
2019-02-15T04:33:06.046Z,38.97
2019-02-15T04:35:36.322Z,31.37
2019-02-15T04:38:06.697Z,39.27
2019-02-15T04:40:37.238Z,41.83
2019-02-15T04:43:07.460Z,36.60
2019-02-15T04:45:37.861Z,36.13
2019-02-15T04:48:08.311Z,41.47
2019-02-15T04:50:38.961Z,35.13
2019-02-15T04:53:09.348Z,30.87
2019-02-15T04:55:39.925Z,37.13
2019-02-15T04:58:10.230Z,36.27
2019-02-15T05:00:40.664Z,33.77
2019-02-15T05:03:11.230Z,38.47
2019-02-15T05:05:41.537Z,37.87
2019-02-15T05:08:11.866Z,36.87
2019-02-15T05:10:42.148Z,38.60
2019-02-15T05:13:12.463Z,38.30
2019-02-15T05:15:42.994Z,39.67
2019-02-15T05:18:13.323Z,37.83
2019-02-15T05:20:43.615Z,38.33
2019-02-15T05:23:13.891Z,36.53
2019-02-15T05:25:44.182Z,37.67
2019-02-15T05:28:14.658Z,37.63
2019-02-15T05:30:44.960Z,39.53
2019-02-15T05:33:15.471Z,37.97
2019-02-15T05:35:45.839Z,37.13
2019-02-15T05:38:16.138Z,36.30
2019-02-15T05:40:46.486Z,37.93
2019-02-15T05:43:16.761Z,38.03
2019-02-15T05:45:47.032Z,38.53
2019-02-15T05:48:17.832Z,37.63
2019-02-15T05:50:48.157Z,33.60
2019-02-15T05:53:18.468Z,41.83
2019-02-15T05:55:49.838Z,34.60
2019-02-15T05:58:20.907Z,36.10
2019-02-15T06:00:51.309Z,39.20
2019-02-15T06:03:21.606Z,35.53
2019-02-15T06:05:51.887Z,38.70
2019-02-15T06:08:22.480Z,36.73
2019-02-15T06:10:54.472Z,38.97
2019-02-15T06:13:24.917Z,38.93
2019-02-15T06:15:55.386Z,41.67
2019-02-15T06:18:25.805Z,37.03
2019-02-15T06:20:56.225Z,34.30
2019-02-15T06:23:26.686Z,36.70
2019-02-15T06:25:56.977Z,37.20
2019-02-15T06:28:27.267Z,40.73
2019-02-15T06:30:57.527Z,43.53
2019-02-15T06:33:27.835Z,44.53
2019-02-15T06:35:58.126Z,40.17
2019-02-15T06:38:34.826Z,48.30
2019-02-15T06:41:00.436Z,40.40
2019-02-15T06:43:30.716Z,42.23
2019-02-15T06:46:01.023Z,90.57
2019-02-15T06:48:31.361Z,120.60
2019-02-15T06:51:02.990Z,84.83
2019-02-15T06:53:33.293Z,75.27
2019-02-15T06:56:03.573Z,55.67
2019-02-15T06:58:34.536Z,66.57
2019-02-15T07:01:24.775Z,115.33
2019-02-15T07:03:56.705Z,65.27
2019-02-15T07:06:27.002Z,53.37
2019-02-15T07:08:57.275Z,49.07
2019-02-15T07:11:27.559Z,45.40
2019-02-15T07:13:57.856Z,44.40
2019-02-15T07:16:28.274Z,40.23
2019-02-15T07:18:58.623Z,48.07
2019-02-15T07:21:28.905Z,49.77
2019-02-15T07:23:59.181Z,51.47
2019-02-15T07:26:29.490Z,44.90
2019-02-15T07:28:59.799Z,44.20
2019-02-15T07:31:30.354Z,43.73
2019-02-15T07:34:00.648Z,45.60
2019-02-15T07:36:31.106Z,45.60
2019-02-15T07:39:01.387Z,44.83
2019-02-15T07:41:32.756Z,36.47
2019-02-15T07:44:03.056Z,42.53
2019-02-15T07:46:33.322Z,40.27
2019-02-15T07:49:03.613Z,40.57
2019-02-15T07:51:33.945Z,49.27
2019-02-15T07:54:04.260Z,44.40
2019-02-15T07:56:35.523Z,40.33
2019-02-15T07:59:05.811Z,37.17
2019-02-15T08:01:36.091Z,49.80
2019-02-15T08:04:06.879Z,41.77
2019-02-15T08:06:37.291Z,45.63
2019-02-15T08:09:10.799Z,41.00
2019-02-15T08:11:41.142Z,40.50
2019-02-15T08:14:14.916Z,40.13
2019-02-15T08:16:43.431Z,39.43
2019-02-15T08:19:16.215Z,38.63
2019-02-15T08:21:46.521Z,38.40
2019-02-15T08:24:16.822Z,39.03
2019-02-15T08:26:47.284Z,34.80
2019-02-15T08:29:17.554Z,38.37
2019-02-15T08:31:47.870Z,41.07
2019-02-15T08:34:18.209Z,38.20
2019-02-15T08:36:48.529Z,39.00
2019-02-15T08:39:18.986Z,37.70
2019-02-15T08:42:00.695Z,39.03
2019-02-15T08:44:21.238Z,37.23
2019-02-15T08:46:51.534Z,38.97
2019-02-15T08:49:21.825Z,36.57
2019-02-15T08:51:52.148Z,36.20
2019-02-15T08:54:22.445Z,40.40
2019-02-15T08:56:52.739Z,34.00
2019-02-15T08:59:23.030Z,38.37
2019-02-15T09:02:00.970Z,43.63
2019-02-15T09:04:31.750Z,34.43
2019-02-15T09:07:02.080Z,36.70
2019-02-15T09:09:32.446Z,38.17
2019-02-15T09:12:02.731Z,44.77
2019-02-15T09:14:33.005Z,45.33
2019-02-15T09:17:03.383Z,40.67
2019-02-15T09:19:33.697Z,42.07
2019-02-15T09:22:04.480Z,43.20
2019-02-15T09:24:34.771Z,34.43
2019-02-15T09:27:06.678Z,44.70
2019-02-15T09:29:36.999Z,41.83
2019-02-15T09:32:07.296Z,45.30
2019-02-15T09:34:37.634Z,47.43
2019-02-15T09:37:08.010Z,43.30
2019-02-15T09:39:39.558Z,40.37
2019-02-15T09:42:10.051Z,43.50
2019-02-15T09:44:40.350Z,48.87
2019-02-15T09:47:14.564Z,40.73
2019-02-15T09:49:46.727Z,49.03
2019-02-15T09:52:16.893Z,43.27
2019-02-15T09:54:47.285Z,38.37
2019-02-15T09:57:17.590Z,41.93
2019-02-15T09:59:48.164Z,50.80
2019-02-15T10:02:18.444Z,48.57
2019-02-15T10:04:48.778Z,47.07
2019-02-15T10:07:19.103Z,49.07
2019-02-15T10:09:49.430Z,39.53
2019-02-15T10:12:19.714Z,43.67
2019-02-15T10:14:50.014Z,38.87
2019-02-15T10:17:20.298Z,45.70
2019-02-15T10:19:50.636Z,45.27
2019-02-15T10:22:21.072Z,44.50
2019-02-15T10:24:51.371Z,50.67
2019-02-15T10:27:21.686Z,51.47
2019-02-15T10:29:51.965Z,62.23
2019-02-15T10:32:22.336Z,60.67
2019-02-15T10:34:52.622Z,56.50
2019-02-15T10:37:22.911Z,54.77
2019-02-15T10:39:53.213Z,57.70
2019-02-15T10:42:23.613Z,61.23
2019-02-15T10:44:53.910Z,58.63
2019-02-15T10:47:25.185Z,54.60
2019-02-15T10:49:55.704Z,58.27
2019-02-15T10:52:26.005Z,62.23
2019-02-15T10:54:56.305Z,56.17
2019-02-15T10:57:26.600Z,56.90
2019-02-15T10:59:56.883Z,55.83
2019-02-15T11:02:27.252Z,63.37
2019-02-15T11:04:57.549Z,64.60
2019-02-15T11:07:27.875Z,62.63
2019-02-15T11:09:58.169Z,63.40
2019-02-15T11:12:28.586Z,60.23
2019-02-15T11:14:58.878Z,63.73
2019-02-15T11:17:29.168Z,60.07
2019-02-15T11:19:59.490Z,59.27
2019-02-15T11:22:29.819Z,63.43
2019-02-15T11:25:00.319Z,61.90
2019-02-15T11:27:30.574Z,58.30
2019-02-15T11:30:01.975Z,59.33
2019-02-15T11:32:33.545Z,65.07
2019-02-15T11:35:05.484Z,69.30
2019-02-15T11:37:35.790Z,62.33
2019-02-15T11:40:09.099Z,57.77
2019-02-15T11:42:39.411Z,59.27
2019-02-15T11:45:14.465Z,65.03
2019-02-15T11:47:44.737Z,68.00
2019-02-15T11:50:15.541Z,65.97
2019-02-15T11:52:45.845Z,73.00
2019-02-15T11:55:19.125Z,65.27
2019-02-15T11:57:49.482Z,65.17
2019-02-15T12:00:33.906Z,68.27
2019-02-15T12:03:04.383Z,67.33
2019-02-15T12:05:34.687Z,63.67
2019-02-15T12:08:05.002Z,63.57
2019-02-15T12:10:36.835Z,58.60
2019-02-15T12:13:07.173Z,69.70
2019-02-15T12:15:37.500Z,62.33
2019-02-15T12:18:07.814Z,67.57
2019-02-15T12:20:39.644Z,62.73
2019-02-15T12:23:09.928Z,63.83
2019-02-15T12:25:40.261Z,67.43
2019-02-15T12:28:10.560Z,71.57
2019-02-15T12:30:41.004Z,73.33
2019-02-15T12:33:11.312Z,78.40
2019-02-15T12:35:41.599Z,73.10
2019-02-15T12:38:11.905Z,79.73
2019-02-15T12:40:42.213Z,73.33
2019-02-15T12:43:12.529Z,78.80
2019-02-15T12:45:42.821Z,74.90
2019-02-15T12:48:14.090Z,76.03
2019-02-15T12:50:44.482Z,75.97
2019-02-15T12:53:14.842Z,68.40
2019-02-15T12:55:45.148Z,67.73
2019-02-15T12:58:15.413Z,65.10
2019-02-15T13:00:45.722Z,67.27
2019-02-15T13:03:16.213Z,73.80
2019-02-15T13:05:46.583Z,66.63
2019-02-15T13:08:16.868Z,66.57
2019-02-15T13:10:47.173Z,64.23
2019-02-15T13:13:17.467Z,59.03
2019-02-15T13:15:47.761Z,66.63
2019-02-15T13:18:19.576Z,74.27
2019-02-15T13:20:49.848Z,70.10
2019-02-15T13:23:20.163Z,66.30
2019-02-15T13:25:50.467Z,75.47
2019-02-15T13:28:20.815Z,60.33
2019-02-15T13:30:51.112Z,62.13
2019-02-15T13:33:21.393Z,70.17
2019-02-15T13:35:51.661Z,71.30
2019-02-15T13:38:22.141Z,69.77
2019-02-15T13:40:52.421Z,63.53
2019-02-15T13:43:22.695Z,71.23
2019-02-15T13:45:53.004Z,68.97
2019-02-15T13:48:23.292Z,70.97
2019-02-15T13:50:53.564Z,59.07
2019-02-15T13:53:23.864Z,56.60
2019-02-15T13:55:55.267Z,64.50
2019-02-15T13:58:25.528Z,65.77
2019-02-15T14:00:56.131Z,239.43
2019-02-15T14:03:26.571Z,102.03
2019-02-15T14:05:57.093Z,80.83
2019-02-15T14:08:27.783Z,71.93
2019-02-15T14:10:58.077Z,76.27
2019-02-15T14:13:28.550Z,63.30
2019-02-15T14:15:59.123Z,67.23
2019-02-15T14:18:29.402Z,66.77
2019-02-15T14:21:00.941Z,59.73
2019-02-15T14:23:31.246Z,150.47
2019-02-15T14:26:03.320Z,135.93
2019-02-15T14:28:33.642Z,85.10
2019-02-15T14:31:03.916Z,66.23
2019-02-15T14:33:34.213Z,73.83
2019-02-15T14:36:04.510Z,79.50
2019-02-15T14:38:34.834Z,71.87
2019-02-15T14:41:05.128Z,75.53
2019-02-15T14:43:35.451Z,81.50
2019-02-15T14:46:05.751Z,91.60
2019-02-15T14:48:36.049Z,71.03
2019-02-15T14:51:07.427Z,106.50
2019-02-15T14:53:37.736Z,102.10
2019-02-15T14:56:08.085Z,129.13
2019-02-15T14:58:38.525Z,159.27
2019-02-15T15:01:08.824Z,102.83
2019-02-15T15:03:39.156Z,82.17
2019-02-15T15:06:09.422Z,73.47
2019-02-15T15:08:39.728Z,74.77
2019-02-15T15:11:10.017Z,72.93
2019-02-15T15:13:40.322Z,77.30
2019-02-15T15:16:10.625Z,84.03
2019-02-15T15:18:41.000Z,90.20
2019-02-15T15:21:11.149Z,79.93
2019-02-15T15:23:41.445Z,90.97
2019-02-15T15:26:12.330Z,91.03
2019-02-15T15:28:42.636Z,126.47
2019-02-15T15:31:12.899Z,120.60
2019-02-15T15:33:43.181Z,113.03
2019-02-15T15:36:13.641Z,139.33
2019-02-15T15:38:43.944Z,159.47
2019-02-15T15:41:14.250Z,82.13
2019-02-15T15:43:44.582Z,82.77
2019-02-15T15:46:14.993Z,73.73
2019-02-15T15:48:45.651Z,81.93
2019-02-15T15:51:21.228Z,89.67
2019-02-15T15:53:51.507Z,80.37
2019-02-15T15:56:21.858Z,155.17
2019-02-15T15:58:52.490Z,91.90
2019-02-15T16:01:23.086Z,100.20
2019-02-15T16:03:53.804Z,115.27
2019-02-15T16:06:24.860Z,107.80
2019-02-15T16:08:55.926Z,91.03
2019-02-15T16:11:26.442Z,87.50
2019-02-15T16:13:57.116Z,117.37
2019-02-15T16:16:27.811Z,99.10
2019-02-15T16:18:58.256Z,104.10
2019-02-15T16:21:29.036Z,134.37
2019-02-15T16:23:59.645Z,151.03
2019-02-15T16:26:30.012Z,130.63
2019-02-15T16:29:00.387Z,125.23
2019-02-15T16:31:31.378Z,131.40
2019-02-15T16:34:01.666Z,134.03
2019-02-15T16:36:32.228Z,137.87
2019-02-15T16:39:02.786Z,158.57
2019-02-15T16:41:34.339Z,104.07
2019-02-15T16:44:04.871Z,127.57
2019-02-15T16:46:35.692Z,130.90
2019-02-15T16:49:06.102Z,111.77
2019-02-15T16:51:36.438Z,104.63
2019-02-15T16:54:07.280Z,103.43
2019-02-15T16:56:37.619Z,356.80
2019-02-15T16:59:08.644Z,142.37
2019-02-15T17:01:39.552Z,191.30
2019-02-15T17:04:10.428Z,174.17
2019-02-15T17:06:41.053Z,168.23
2019-02-15T17:09:13.246Z,150.57
2019-02-15T17:11:43.631Z,116.53
2019-02-15T17:14:14.269Z,176.53
2019-02-15T17:16:44.586Z,125.47
2019-02-15T17:19:15.454Z,89.67
2019-02-15T17:21:45.817Z,89.30
2019-02-15T17:24:16.192Z,89.77
2019-02-15T17:26:46.496Z,88.73
2019-02-15T17:29:16.830Z,80.20
2019-02-15T17:31:47.149Z,80.97
2019-02-15T17:34:17.436Z,82.93
2019-02-15T17:36:47.755Z,89.17
2019-02-15T17:39:18.105Z,100.63
2019-02-15T17:41:48.428Z,138.47
2019-02-15T17:44:23.326Z,149.27
2019-02-15T17:46:54.073Z,161.87
2019-02-15T17:49:24.431Z,151.67
2019-02-15T17:51:56.843Z,148.30
2019-02-15T17:54:27.128Z,126.50
2019-02-15T17:56:57.449Z,123.67
2019-02-15T17:59:27.800Z,121.27
2019-02-15T18:01:58.114Z,131.93
2019-02-15T18:04:28.436Z,111.23
2019-02-15T18:06:58.720Z,131.57
2019-02-15T18:09:29.021Z,118.63
2019-02-15T18:11:59.343Z,102.90
2019-02-15T18:14:30.022Z,112.07
2019-02-15T18:17:02.358Z,112.30
2019-02-15T18:19:32.619Z,102.87
2019-02-15T18:22:03.150Z,111.07
2019-02-15T18:24:35.115Z,114.90
2019-02-15T18:27:05.488Z,118.87
2019-02-15T18:29:35.814Z,122.23
2019-02-15T18:32:06.163Z,108.33
2019-02-15T18:34:36.486Z,107.43
2019-02-15T18:37:06.815Z,106.90
2019-02-15T18:39:40.373Z,115.57
2019-02-15T18:42:10.996Z,114.83
2019-02-15T18:44:41.685Z,103.17
2019-02-15T18:47:12.551Z,168.20
2019-02-15T18:49:44.485Z,208.10
2019-02-15T18:52:14.910Z,162.50
2019-02-15T18:54:47.032Z,140.07
2019-02-15T18:57:17.374Z,137.67
2019-02-15T18:59:47.689Z,135.10
2019-02-15T19:02:18.085Z,131.90
2019-02-15T19:04:48.401Z,116.90
2019-02-15T19:07:18.662Z,128.17
2019-02-15T19:09:49.054Z,125.20
2019-02-15T19:12:19.600Z,133.77
2019-02-15T19:14:50.441Z,139.43
2019-02-15T19:17:21.472Z,132.33
2019-02-15T19:19:51.935Z,135.80
2019-02-15T19:22:22.865Z,164.87
2019-02-15T19:24:53.265Z,169.70
2019-02-15T19:27:24.252Z,148.13
2019-02-15T19:29:54.744Z,145.63
2019-02-15T19:32:25.393Z,151.33
2019-02-15T19:34:55.713Z,190.00
2019-02-15T19:37:29.268Z,205.07
2019-02-15T19:40:02.150Z,142.37
2019-02-15T19:42:33.084Z,230.33
2019-02-15T19:45:04.863Z,184.53
2019-02-15T19:47:35.454Z,204.63
2019-02-15T19:50:09.614Z,235.63
2019-02-15T19:52:40.357Z,250.60
2019-02-15T19:55:11.482Z,242.40
2019-02-15T19:57:42.487Z,224.27
2019-02-15T20:00:17.931Z,217.97
2019-02-15T20:02:48.348Z,193.80
2019-02-15T20:05:19.367Z,174.17
2019-02-15T20:07:49.740Z,181.63
2019-02-15T20:10:23.754Z,247.27
2019-02-15T20:12:54.340Z,176.80
2019-02-15T20:15:24.840Z,174.07
2019-02-15T20:17:55.656Z,150.10
2019-02-15T20:20:26.112Z,165.90
2019-02-15T20:22:56.416Z,168.63
2019-02-15T20:25:26.803Z,177.47
2019-02-15T20:27:57.165Z,179.90
2019-02-15T20:30:27.702Z,160.77
2019-02-15T20:32:59.561Z,170.57
2019-02-15T20:35:29.847Z,156.63
2019-02-15T20:38:01.693Z,151.40
2019-02-15T20:40:32.015Z,160.87
2019-02-15T20:43:02.479Z,174.20
2019-02-15T20:45:32.887Z,173.00
2019-02-15T20:48:03.881Z,155.77
2019-02-15T20:50:34.310Z,136.23
2019-02-15T20:53:04.776Z,166.50
2019-02-15T20:55:35.271Z,143.23
2019-02-15T20:58:05.933Z,156.87
2019-02-15T21:00:36.747Z,180.43
2019-02-15T21:03:07.093Z,154.00
2019-02-15T21:05:37.636Z,125.43
2019-02-15T21:08:08.078Z,131.13
2019-02-15T21:10:38.417Z,124.70
2019-02-15T21:13:08.819Z,127.97
2019-02-15T21:15:39.202Z,127.43
2019-02-15T21:18:09.590Z,154.07
2019-02-15T21:20:39.865Z,160.03
2019-02-15T21:23:10.462Z,134.97
2019-02-15T21:25:41.050Z,150.57
2019-02-15T21:28:12.575Z,148.13
2019-02-15T21:30:42.958Z,121.50
2019-02-15T21:33:13.657Z,159.57
2019-02-15T21:35:44.012Z,157.27
2019-02-15T21:38:14.465Z,143.20
2019-02-15T21:40:45.081Z,108.33
2019-02-15T21:43:16.471Z,96.00
2019-02-15T21:45:47.009Z,91.67
2019-02-15T21:48:17.667Z,85.67
2019-02-15T21:50:48.177Z,117.33
2019-02-15T21:53:18.917Z,95.23
2019-02-15T21:55:49.270Z,82.63
2019-02-15T21:58:22.538Z,77.50
2019-02-15T22:00:54.451Z,81.03
2019-02-15T22:03:26.276Z,78.87
2019-02-15T22:05:57.233Z,77.00
2019-02-15T22:08:27.934Z,73.13
2019-02-15T22:10:58.239Z,67.03
2019-02-15T22:13:28.525Z,70.43
2019-02-15T22:15:58.808Z,67.33
2019-02-15T22:18:29.141Z,125.37
2019-02-15T22:20:59.672Z,124.33
2019-02-15T22:23:30.031Z,83.50
2019-02-15T22:26:00.379Z,71.83
2019-02-15T22:28:30.677Z,70.83
2019-02-15T22:31:00.997Z,67.53
2019-02-15T22:33:31.275Z,64.50
2019-02-15T22:36:01.568Z,63.47
2019-02-15T22:38:31.854Z,66.63
2019-02-15T22:41:11.279Z,66.27
2019-02-15T22:43:43.293Z,63.03
2019-02-15T22:46:13.671Z,59.10
2019-02-15T22:48:43.994Z,59.40
2019-02-15T22:51:14.279Z,73.97
2019-02-15T22:53:44.581Z,154.17
2019-02-15T22:56:13.964Z,82.17
2019-02-15T22:58:44.240Z,66.60
2019-02-15T23:01:15.362Z,69.53
2019-02-15T23:03:45.636Z,61.33
2019-02-15T23:06:15.913Z,62.60
2019-02-15T23:08:46.209Z,67.27
2019-02-15T23:11:16.500Z,62.23
2019-02-15T23:13:46.778Z,54.13
2019-02-15T23:16:18.021Z,58.40
2019-02-15T23:18:49.934Z,59.00
2019-02-15T23:21:20.235Z,56.37
2019-02-15T23:23:50.528Z,58.83
2019-02-15T23:26:20.833Z,63.27
2019-02-15T23:28:51.125Z,57.13
2019-02-15T23:31:21.398Z,66.53
2019-02-15T23:33:54.488Z,61.37
2019-02-15T23:36:24.792Z,61.37
2019-02-15T23:38:55.061Z,75.43
2019-02-15T23:41:25.339Z,64.37
2019-02-15T23:43:55.641Z,72.93
2019-02-15T23:46:25.943Z,80.37
2019-02-15T23:48:56.225Z,60.43
2019-02-15T23:51:26.525Z,57.13
2019-02-15T23:53:56.797Z,57.93
2019-02-15T23:56:27.098Z,57.90
2019-02-15T23:58:57.451Z,60.20
